Time;durP1;ratioP1;P1;durP2;ratioP2;P2;SDS_P1;SDS_P2;PMS_P1;PMS_P2;Temp;Humidity;BMP_temperature;BMP_pressure;BME280_temperature;BME280_humidity;BME280_pressure;Samples;Min_cycle;Max_cycle;Signal;HPM_P1;HPM_P2
2024/01/15 00:00:34;;;;;;;32.40;23.20;;;;;;;3.13;48.73;100864.06;106754;1260;22538;-52
2024/01/15 00:03:01;;;;;;;35.70;23.80;;;;;;;3.14;48.87;100864.23;106514;1265;24348;-52
2024/01/15 00:05:28;;;;;;;34.70;23.20;;;;;;;3.13;48.69;100867.83;106460;1265;25345;-54
2024/01/15 00:07:55;;;;;;;37.80;24.60;;;;;;;3.12;48.59;100865.44;106717;1260;24360;-52
2024/01/15 00:10:23;;;;;;;34.20;24.20;;;;;;;3.13;48.61;100868.35;105857;1262;1003068;-52
2024/01/15 00:12:50;;;;;;;34.80;23.30;;;;;;;3.14;48.46;100869.90;105783;1263;1002965;-52
2024/01/15 00:15:17;;;;;;;33.90;22.40;;;;;;;3.17;48.56;100870.61;106022;1257;1003009;-52
2024/01/15 00:17:44;;;;;;;37.10;24.40;;;;;;;3.19;48.65;100877.15;106487;1265;25315;-51
2024/01/15 00:20:12;;;;;;;32.10;22.70;;;;;;;3.22;48.67;100878.37;105732;1259;1002798;-52
2024/01/15 00:22:39;;;;;;;32.70;22.30;;;;;;;3.23;48.23;100880.98;106725;1262;25328;-52
2024/01/15 00:25:06;;;;;;;36.90;23.10;;;;;;;3.24;48.39;100893.31;106719;1263;25398;-52
2024/01/15 00:27:33;;;;;;;31.50;22.70;;;;;;;3.24;48.26;100890.74;106840;1261;25357;-52
2024/01/15 00:30:01;;;;;;;33.10;21.20;;;;;;;3.22;48.22;100892.45;106822;1272;25406;-52
2024/01/15 00:32:28;;;;;;;31.50;21.30;;;;;;;3.22;48.49;100890.04;106666;1269;25356;-52
2024/01/15 00:34:55;;;;;;;32.30;22.30;;;;;;;3.24;48.51;100888.02;105933;1256;1002862;-52
2024/01/15 00:37:22;;;;;;;34.40;22.10;;;;;;;3.27;48.77;100881.69;106704;1268;24206;-52
2024/01/15 00:39:49;;;;;;;34.20;23.80;;;;;;;3.28;48.47;100876.04;106749;1269;25315;-53
2024/01/15 00:42:17;;;;;;;32.70;22.90;;;;;;;3.28;48.51;100872.77;106013;1262;1005401;-52
2024/01/15 00:44:44;;;;;;;34.20;22.90;;;;;;;3.28;48.46;100870.39;106455;1272;25363;-52
2024/01/15 00:47:11;;;;;;;32.80;23.30;;;;;;;3.28;48.49;100866.44;106533;1265;25488;-52
2024/01/15 00:49:38;;;;;;;29.20;20.70;;;;;;;3.29;48.60;100865.60;106800;1263;24167;-52
2024/01/15 00:52:05;;;;;;;33.10;21.70;;;;;;;3.31;48.70;100867.49;106752;1270;25367;-52
2024/01/15 00:54:32;;;;;;;33.30;22.20;;;;;;;3.36;48.69;100869.43;106664;1263;25339;-51
2024/01/15 00:56:59;;;;;;;31.90;21.90;;;;;;;3.38;48.41;100872.35;106714;1273;25339;-52
2024/01/15 00:59:26;;;;;;;33.60;22.80;;;;;;;3.37;48.25;100877.48;106880;1262;22538;-52
2024/01/15 01:01:53;;;;;;;36.40;22.60;;;;;;;3.35;48.30;100875.41;106765;1259;22628;-52
2024/01/15 01:04:20;;;;;;;35.40;23.70;;;;;;;3.34;47.99;100879.52;106706;1262;25494;-52
2024/01/15 01:06:47;;;;;;;34.70;23.50;;;;;;;3.29;48.12;100880.85;106577;1262;25335;-51
2024/01/15 01:09:14;;;;;;;38.10;22.40;;;;;;;3.25;48.18;100883.73;105712;1262;1003670;-52
2024/01/15 01:11:42;;;;;;;32.10;22.00;;;;;;;3.30;48.00;100881.04;106307;1269;25324;-52
2024/01/15 01:14:09;;;;;;;30.60;21.40;;;;;;;3.30;47.66;100880.69;106510;1272;25321;-52
2024/01/15 01:16:38;;;;;;;31.20;21.90;;;;;;;3.33;47.82;100885.34;106134;1279;25387;-52
2024/01/15 01:19:06;;;;;;;34.20;21.10;;;;;;;3.27;47.74;100890.45;106463;1260;22537;-52
2024/01/15 01:21:34;;;;;;;32.70;22.20;;;;;;;3.21;47.85;100896.88;106600;1260;23902;-52
2024/01/15 01:24:01;;;;;;;32.30;22.40;;;;;;;3.16;47.52;100894.76;106737;1271;25488;-52
2024/01/15 01:26:28;;;;;;;34.90;23.30;;;;;;;3.10;47.67;100892.83;105710;1279;1003719;-52
2024/01/15 01:28:56;;;;;;;35.00;23.00;;;;;;;3.08;47.78;100888.69;106750;1276;25524;-52
2024/01/15 01:31:25;;;;;;;29.80;20.50;;;;;;;3.07;47.88;100885.41;106143;1260;1002939;-52
2024/01/15 01:33:53;;;;;;;29.60;20.40;;;;;;;3.08;48.01;100881.67;106021;1270;1003040;-52
2024/01/15 01:36:20;;;;;;;34.20;20.80;;;;;;;3.09;48.09;100870.53;106811;1263;25491;-52
2024/01/15 01:38:47;;;;;;;28.40;19.20;;;;;;;3.10;47.92;100870.55;106839;1263;25354;-52
2024/01/15 01:41:15;;;;;;;30.70;20.50;;;;;;;3.09;47.81;100867.79;106066;1262;1003582;-52
2024/01/15 01:43:43;;;;;;;32.10;22.40;;;;;;;3.08;47.90;100865.03;106518;1266;25366;-52
2024/01/15 01:46:10;;;;;;;31.60;21.90;;;;;;;3.06;47.82;100857.99;105894;1265;1003577;-52
2024/01/15 01:48:38;;;;;;;29.10;20.30;;;;;;;3.05;47.67;100860.55;106414;1268;25337;-52
2024/01/15 01:51:05;;;;;;;32.20;21.90;;;;;;;3.06;48.07;100849.77;106684;1273;26156;-52
2024/01/15 01:53:34;;;;;;;30.50;20.10;;;;;;;3.08;47.93;100850.81;106812;1269;25363;-52
2024/01/15 01:56:00;;;;;;;28.80;19.70;;;;;;;3.09;47.66;100849.10;106810;1269;25328;-51
2024/01/15 01:58:28;;;;;;;31.60;20.20;;;;;;;3.09;47.58;100851.52;106714;1270;25456;-52
2024/01/15 02:00:55;;;;;;;27.60;19.80;;;;;;;3.09;47.75;100854.41;105867;1265;1003024;-52
2024/01/15 02:03:22;;;;;;;32.10;20.80;;;;;;;3.08;47.57;100852.52;106636;1263;22541;-52
2024/01/15 02:05:50;;;;;;;34.10;22.00;;;;;;;3.06;47.67;100852.16;106646;1270;25412;-52
2024/01/15 02:08:17;;;;;;;35.90;23.90;;;;;;;3.04;47.78;100848.71;106792;1262;25328;-52
2024/01/15 02:10:44;;;;;;;37.00;24.60;;;;;;;3.02;47.49;100850.58;106709;1270;25324;-52
2024/01/15 02:13:11;;;;;;;33.20;21.90;;;;;;;3.02;47.56;100845.79;105784;1274;1003180;-52
2024/01/15 02:15:38;;;;;;;32.40;22.40;;;;;;;3.02;47.53;100836.02;105998;1262;1002977;-52
2024/01/15 02:18:07;;;;;;;35.90;23.70;;;;;;;3.03;47.26;100835.69;106719;1269;25331;-52
2024/01/15 02:20:34;;;;;;;33.20;22.50;;;;;;;3.04;47.22;100833.81;106749;1266;22543;-52
2024/01/15 02:23:12;;;;;;;31.30;21.50;;;;;;;3.03;46.92;100832.59;106098;1270;1002900;-52
2024/01/15 02:25:46;;;;;;;32.60;21.00;;;;;;;3.01;47.01;100833.61;106814;1259;25328;-52
2024/01/15 02:28:17;;;;;;;32.80;22.30;;;;;;;2.97;46.81;100832.20;106865;1262;25280;-52
2024/01/15 02:30:44;;;;;;;33.80;22.70;;;;;;;2.86;46.97;100831.73;105883;1262;1003457;-52
2024/01/15 02:33:12;;;;;;;36.40;23.40;;;;;;;2.73;47.20;100832.09;106092;1262;1002723;-52
2024/01/15 02:35:40;;;;;;;29.70;21.30;;;;;;;2.68;47.62;100829.31;106009;1263;1002897;-51
2024/01/15 02:38:07;;;;;;;36.20;22.00;;;;;;;2.65;47.61;100833.73;106365;1279;25338;-52
2024/01/15 02:40:35;;;;;;;30.40;20.40;;;;;;;2.63;47.61;100832.34;105977;1262;1002285;-52
2024/01/15 02:43:02;;;;;;;32.80;23.20;;;;;;;2.61;47.75;100837.45;106031;1265;1003077;-51
2024/01/15 02:45:29;;;;;;;33.00;20.90;;;;;;;2.60;47.85;100837.27;106601;1263;25339;-52
2024/01/15 02:47:56;;;;;;;33.30;21.80;;;;;;;2.57;47.64;100833.63;106289;1271;25367;-52
2024/01/15 02:50:23;;;;;;;31.30;20.50;;;;;;;2.53;47.62;100827.77;105730;1273;1003397;-52
2024/01/15 02:52:50;;;;;;;36.10;23.70;;;;;;;2.51;47.54;100828.95;105984;1260;1003262;-52
2024/01/15 02:55:17;;;;;;;34.20;22.40;;;;;;;2.50;47.69;100823.96;106643;1270;25363;-52
2024/01/15 02:57:44;;;;;;;31.40;20.50;;;;;;;2.50;47.57;100825.16;106655;1266;25405;-52
2024/01/15 03:00:12;;;;;;;28.20;19.30;;;;;;;2.51;47.98;100825.34;105949;1263;1003416;-51
2024/01/15 03:02:40;;;;;;;29.40;19.90;;;;;;;2.55;47.84;100826.77;105767;1262;1003420;-52
2024/01/15 03:05:10;;;;;;;29.20;19.90;;;;;;;2.65;47.70;100826.36;105433;1273;1015748;-52
2024/01/15 03:07:37;;;;;;;29.80;20.40;;;;;;;2.72;47.75;100822.34;106341;1277;25418;-52
2024/01/15 03:10:06;;;;;;;29.40;20.50;;;;;;;2.66;47.74;100821.75;106722;1260;25325;-52
2024/01/15 03:12:33;;;;;;;29.80;20.50;;;;;;;2.61;47.59;100824.45;105675;1265;1003920;-50
2024/01/15 03:15:00;;;;;;;30.90;20.40;;;;;;;2.60;47.83;100819.98;105923;1262;1003623;-51
2024/01/15 03:17:27;;;;;;;32.70;21.90;;;;;;;2.61;47.82;100818.77;106168;1273;25389;-53
2024/01/15 03:19:54;;;;;;;29.40;20.80;;;;;;;2.61;47.66;100815.36;105978;1263;1003399;-53
2024/01/15 03:22:22;;;;;;;41.70;26.70;;;;;;;2.63;47.57;100808.70;106918;1260;25346;-53
2024/01/15 03:24:49;;;;;;;44.70;24.80;;;;;;;2.64;47.87;100809.40;106019;1270;1003173;-51
2024/01/15 03:27:18;;;;;;;32.40;22.50;;;;;;;2.65;47.88;100812.84;106048;1259;1002889;-52
2024/01/15 03:29:46;;;;;;;32.90;22.20;;;;;;;2.65;47.75;100816.43;106766;1263;25338;-52
2024/01/15 03:32:13;;;;;;;35.00;23.00;;;;;;;2.63;47.62;100816.24;106727;1263;22658;-53
2024/01/15 03:34:40;;;;;;;34.30;23.00;;;;;;;2.62;47.73;100814.00;106060;1261;1003382;-52
2024/01/15 03:37:08;;;;;;;30.60;21.30;;;;;;;2.61;47.73;100818.10;106891;1272;25398;-52
2024/01/15 03:39:35;;;;;;;30.80;21.10;;;;;;;2.60;47.91;100814.14;106761;1263;24567;-52
2024/01/15 03:42:02;;;;;;;34.40;21.30;;;;;;;2.60;48.07;100815.69;106163;1260;1002853;-52
2024/01/15 03:44:29;;;;;;;32.80;22.30;;;;;;;2.59;47.97;100814.31;106647;1269;25354;-52
2024/01/15 03:46:57;;;;;;;26.20;19.70;;;;;;;2.58;48.04;100812.06;106694;1270;25318;-52
2024/01/15 03:49:24;;;;;;;29.40;20.20;;;;;;;2.55;48.10;100811.70;106003;1267;1002886;-53
2024/01/15 03:51:52;;;;;;;30.50;21.70;;;;;;;2.52;48.23;100810.29;106004;1269;1003436;-54
2024/01/15 03:54:19;;;;;;;31.30;21.30;;;;;;;2.49;47.81;100820.37;106870;1270;25488;-51
2024/01/15 03:56:47;;;;;;;33.10;23.00;;;;;;;2.49;47.82;100824.30;106761;1272;25436;-52
2024/01/15 03:59:14;;;;;;;33.10;22.60;;;;;;;2.49;48.11;100822.23;105927;1272;1003431;-53
2024/01/15 04:01:41;;;;;;;31.90;21.60;;;;;;;2.50;47.88;100825.85;106792;1274;25350;-52
2024/01/15 04:04:08;;;;;;;34.50;23.20;;;;;;;2.52;47.93;100823.81;106381;1279;25344;-52
2024/01/15 04:06:35;;;;;;;38.40;25.30;;;;;;;2.54;47.61;100826.08;106139;1268;1002853;-52
2024/01/15 04:09:03;;;;;;;36.70;25.70;;;;;;;2.53;47.62;100828.11;106468;1273;25523;-53
2024/01/15 04:11:30;;;;;;;36.30;24.00;;;;;;;2.54;47.41;100830.17;106621;1279;25373;-51
2024/01/15 04:13:57;;;;;;;31.60;21.70;;;;;;;2.52;47.53;100829.29;105633;1270;1003053;-51
2024/01/15 04:16:25;;;;;;;28.80;19.90;;;;;;;2.49;47.79;100827.72;105546;1267;1003318;-53
2024/01/15 04:18:52;;;;;;;32.40;20.90;;;;;;;2.45;47.83;100826.13;105948;1270;1003264;-52
2024/01/15 04:21:19;;;;;;;34.10;22.80;;;;;;;2.38;48.02;100821.42;106462;1264;25398;-52
2024/01/15 04:23:46;;;;;;;32.50;21.50;;;;;;;2.35;48.02;100820.52;105723;1272;622058;-56
2024/01/15 04:26:13;;;;;;;31.90;20.90;;;;;;;2.36;47.88;100820.19;105592;1279;1002869;-51
2024/01/15 04:28:40;;;;;;;29.50;20.90;;;;;;;2.40;48.06;100821.44;105554;1279;1003168;-53
2024/01/15 04:31:07;;;;;;;28.20;19.50;;;;;;;2.45;48.04;100823.73;106457;1260;25328;-52
2024/01/15 04:33:35;;;;;;;31.70;20.10;;;;;;;2.47;47.80;100825.14;105630;1273;1003055;-52
2024/01/15 04:36:05;;;;;;;29.70;20.50;;;;;;;2.50;47.63;100827.90;106709;1270;25337;-51
2024/01/15 04:38:32;;;;;;;32.70;20.90;;;;;;;2.50;47.61;100825.84;105294;1266;1002952;-52
2024/01/15 04:41:00;;;;;;;29.60;21.90;;;;;;;2.49;47.67;100832.69;106458;1257;25356;-52
2024/01/15 04:43:27;;;;;;;32.50;22.60;;;;;;;2.49;47.74;100836.80;106314;1274;25366;-54
2024/01/15 04:45:54;;;;;;;30.20;20.70;;;;;;;2.48;47.69;100837.30;106510;1257;22532;-52
2024/01/15 04:48:22;;;;;;;32.00;21.80;;;;;;;2.50;47.92;100829.10;106615;1262;25348;-53
2024/01/15 04:50:50;;;;;;;29.60;20.20;;;;;;;2.52;47.87;100826.39;106451;1260;22584;-52
2024/01/15 04:53:17;;;;;;;29.00;19.90;;;;;;;2.54;47.61;100831.88;106474;1279;25412;-52
2024/01/15 04:55:44;;;;;;;31.30;20.70;;;;;;;2.55;47.44;100835.84;106708;1265;25434;-52
2024/01/15 04:58:11;;;;;;;31.40;20.30;;;;;;;2.55;47.27;100833.09;106005;1270;1003300;-52
2024/01/15 05:00:39;;;;;;;34.60;22.50;;;;;;;2.54;47.32;100833.77;106090;1266;1003062;-52
2024/01/15 05:03:06;;;;;;;34.20;22.70;;;;;;;2.52;47.63;100830.66;106919;1267;25456;-52
2024/01/15 05:05:33;;;;;;;36.00;22.30;;;;;;;2.50;47.58;100828.59;105754;1268;1002854;-51
2024/01/15 05:08:00;;;;;;;32.80;22.80;;;;;;;2.50;47.72;100832.02;106627;1263;22541;-53
2024/01/15 05:10:27;;;;;;;31.60;21.20;;;;;;;2.50;47.75;100829.62;106769;1271;25408;-51
2024/01/15 05:12:54;;;;;;;32.10;20.10;;;;;;;2.52;47.81;100827.92;106820;1260;25353;-51
2024/01/15 05:15:22;;;;;;;33.30;20.60;;;;;;;2.54;47.79;100824.17;106729;1263;23881;-51
2024/01/15 05:17:49;;;;;;;32.60;21.40;;;;;;;2.55;47.74;100823.33;106701;1261;25357;-51
2024/01/15 05:20:16;;;;;;;30.50;21.20;;;;;;;2.56;47.89;100820.27;106600;1260;25328;-51
2024/01/15 05:22:43;;;;;;;33.90;22.00;;;;;;;2.54;47.79;100818.88;106610;1273;25477;-51
2024/01/15 05:25:10;;;;;;;33.40;21.80;;;;;;;2.53;48.00;100818.52;106730;1260;25521;-51
2024/01/15 05:27:37;;;;;;;36.90;23.30;;;;;;;2.52;47.84;100824.85;106675;1270;25363;-51
2024/01/15 05:30:05;;;;;;;33.50;22.10;;;;;;;2.50;47.91;100823.79;106865;1261;23211;-51
2024/01/15 05:32:33;;;;;;;31.60;21.80;;;;;;;2.50;48.00;100823.95;106056;1260;1003490;-51
2024/01/15 05:35:00;;;;;;;31.00;21.40;;;;;;;2.51;48.11;100827.39;106467;1271;25332;-51
2024/01/15 05:37:27;;;;;;;30.30;21.10;;;;;;;2.55;48.17;100827.43;106032;1257;1003005;-51
2024/01/15 05:39:54;;;;;;;35.90;23.00;;;;;;;2.58;48.09;100826.28;106789;1258;25477;-51
2024/01/15 05:42:21;;;;;;;31.70;22.10;;;;;;;2.61;47.91;100823.59;106471;1275;25366;-51
2024/01/15 05:44:48;;;;;;;33.10;21.70;;;;;;;2.64;47.87;100825.84;106761;1267;25346;-51
2024/01/15 05:47:15;;;;;;;34.90;23.10;;;;;;;2.64;47.81;100819.85;106060;1269;1002864;-51
2024/01/15 05:49:42;;;;;;;38.30;24.10;;;;;;;2.64;47.51;100820.86;106062;1260;1016059;-51
2024/01/15 05:52:10;;;;;;;40.00;25.70;;;;;;;2.64;47.53;100819.84;106715;1260;25418;-51
2024/01/15 05:54:37;;;;;;;38.90;24.00;;;;;;;2.64;47.48;100822.23;106745;1270;25386;-51
2024/01/15 05:57:05;;;;;;;39.20;23.20;;;;;;;2.69;47.33;100823.84;106752;1260;25351;-51
2024/01/15 05:59:34;;;;;;;41.50;23.80;;;;;;;2.84;47.03;100826.23;106068;1270;1003748;-51
2024/01/15 06:02:01;;;;;;;40.00;24.90;;;;;;;2.90;46.98;100833.50;105848;1264;1002894;-51
2024/01/15 06:04:28;;;;;;;41.00;24.30;;;;;;;2.93;46.98;100837.13;106562;1260;25517;-51
2024/01/15 06:06:55;;;;;;;40.90;24.30;;;;;;;2.96;46.99;100842.13;106599;1261;25513;-51
2024/01/15 06:09:23;;;;;;;32.40;20.60;;;;;;;2.86;47.12;100847.66;106112;1261;1002893;-52
2024/01/15 06:11:50;;;;;;;30.90;20.30;;;;;;;2.86;47.36;100846.98;105981;1270;1002957;-51
2024/01/15 06:14:17;;;;;;;30.00;20.30;;;;;;;3.00;47.16;100849.02;106024;1267;1003180;-51
2024/01/15 06:16:44;;;;;;;31.60;20.60;;;;;;;3.06;47.19;100842.91;105988;1261;1002969;-51
2024/01/15 06:19:11;;;;;;;30.90;18.90;;;;;;;3.12;47.44;100836.29;106506;1277;25346;-51
2024/01/15 06:21:39;;;;;;;29.40;17.70;;;;;;;3.20;47.75;100832.41;106764;1260;25331;-51
2024/01/15 06:24:06;;;;;;;29.60;19.40;;;;;;;3.29;47.68;100833.02;106874;1261;25345;-51
2024/01/15 06:26:33;;;;;;;27.70;18.50;;;;;;;3.38;47.86;100839.27;106799;1260;22584;-51
2024/01/15 06:29:00;;;;;;;24.50;18.10;;;;;;;3.48;47.71;100837.46;106010;1264;1003463;-51
2024/01/15 06:31:27;;;;;;;25.90;18.80;;;;;;;3.55;47.66;100832.02;105661;1276;1002915;-51
2024/01/15 06:33:56;;;;;;;30.90;21.00;;;;;;;3.62;47.42;100839.45;106740;1260;25328;-51
2024/01/15 06:36:23;;;;;;;34.40;22.00;;;;;;;3.69;47.61;100846.71;106600;1263;22551;-51
2024/01/15 06:38:50;;;;;;;31.60;20.40;;;;;;;3.77;47.38;100845.40;106867;1257;25341;-51
2024/01/15 06:41:17;;;;;;;36.20;23.60;;;;;;;3.85;47.36;100847.35;106812;1271;25794;-51
2024/01/15 06:43:44;;;;;;;32.70;20.70;;;;;;;3.94;47.61;100845.19;105980;1273;1003093;-51
2024/01/15 06:46:12;;;;;;;31.60;20.20;;;;;;;4.03;47.30;100845.75;105975;1258;1002990;-51
2024/01/15 06:48:39;;;;;;;27.10;18.80;;;;;;;4.10;47.33;100839.95;106498;1264;24256;-51
2024/01/15 06:51:07;;;;;;;30.00;19.60;;;;;;;4.17;46.90;100837.24;105587;1264;1003414;-51
2024/01/15 06:53:34;;;;;;;25.80;17.90;;;;;;;4.22;46.89;100841.23;105466;1264;1002887;-51
2024/01/15 06:56:02;;;;;;;28.50;19.50;;;;;;;4.27;46.96;100848.46;106333;1268;25342;-51
2024/01/15 06:58:31;;;;;;;24.90;18.10;;;;;;;4.34;47.03;100850.57;106346;1270;25488;-51
2024/01/15 07:00:58;;;;;;;25.90;18.30;;;;;;;4.41;47.11;100851.11;106491;1261;25328;-51
2024/01/15 07:03:25;;;;;;;29.90;18.70;;;;;;;4.48;46.98;100843.58;106578;1261;25430;-51
2024/01/15 07:05:55;;;;;;;25.70;18.80;;;;;;;4.55;46.90;100841.39;106785;1260;25360;-51
2024/01/15 07:08:22;;;;;;;26.40;17.90;;;;;;;4.62;46.65;100847.25;106714;1276;25379;-52
2024/01/15 07:10:50;;;;;;;30.00;19.30;;;;;;;4.67;46.42;100845.39;106702;1272;25316;-52
2024/01/15 07:13:17;;;;;;;34.30;20.60;;;;;;;4.73;46.40;100844.02;105802;1263;1003671;-51
2024/01/15 07:15:44;;;;;;;27.80;18.30;;;;;;;4.78;46.43;100844.89;105965;1272;1003130;-51
2024/01/15 07:18:11;;;;;;;27.70;19.00;;;;;;;4.84;46.70;100849.04;106792;1272;25427;-51
2024/01/15 07:20:39;;;;;;;29.50;19.00;;;;;;;4.91;46.79;100849.40;106836;1265;25319;-51
2024/01/15 07:23:06;;;;;;;32.50;18.50;;;;;;;5.00;47.05;100845.83;106752;1264;25376;-51
2024/01/15 07:25:33;;;;;;;34.00;24.40;;;;;;;5.11;47.30;100841.21;105980;1260;1003773;-53
2024/01/15 07:28:00;;;;;;;39.30;24.70;;;;;;;5.23;47.28;100844.14;106024;1265;1003435;-51
2024/01/15 07:30:27;;;;;;;33.50;26.10;;;;;;;5.33;47.33;100845.35;106858;1261;24214;-51
2024/01/15 07:32:55;;;;;;;32.80;24.90;;;;;;;5.43;47.28;100839.86;106804;1260;25328;-51
2024/01/15 07:35:22;;;;;;;27.80;21.00;;;;;;;5.52;47.25;100835.21;105960;1264;1003596;-52
2024/01/15 07:37:49;;;;;;;31.10;20.40;;;;;;;5.60;47.30;100830.91;106746;1260;25353;-51
2024/01/15 07:40:16;;;;;;;30.60;19.50;;;;;;;5.67;47.51;100830.73;106799;1260;25457;-51
2024/01/15 07:42:43;;;;;;;25.80;18.60;;;;;;;5.75;47.36;100832.79;106816;1269;25339;-51
2024/01/15 07:45:11;;;;;;;26.30;19.70;;;;;;;5.84;47.27;100832.46;106746;1257;24253;-52
2024/01/15 07:47:38;;;;;;;29.10;18.50;;;;;;;5.94;47.03;100827.46;106418;1260;24265;-52
2024/01/15 07:50:05;;;;;;;25.00;17.00;;;;;;;6.03;46.87;100827.09;106489;1264;25421;-51
2024/01/15 07:52:33;;;;;;;26.10;15.40;;;;;;;6.11;46.54;100825.02;106771;1256;22534;-52
2024/01/15 07:55:00;;;;;;;27.10;15.20;;;;;;;6.18;46.07;100827.05;106767;1261;23211;-53
2024/01/15 07:57:28;;;;;;;21.80;14.50;;;;;;;6.24;45.82;100827.73;106369;1279;25450;-51
2024/01/15 07:59:55;;;;;;;22.70;15.20;;;;;;;6.31;45.60;100832.89;106559;1279;24195;-51
2024/01/15 08:02:22;;;;;;;22.40;15.60;;;;;;;6.37;45.55;100833.73;106777;1272;25291;-51
2024/01/15 08:04:49;;;;;;;24.40;15.90;;;;;;;6.42;45.64;100826.47;106023;1276;1003456;-52
2024/01/15 08:07:17;;;;;;;34.30;19.10;;;;;;;6.49;45.51;100830.91;106394;1276;25376;-51
2024/01/15 08:09:47;;;;;;;48.30;25.70;;;;;;;6.56;45.40;100834.51;106041;1264;1003084;-52
2024/01/15 08:12:15;;;;;;;39.80;22.40;;;;;;;6.66;45.32;100834.98;106774;1272;24222;-51
2024/01/15 08:14:42;;;;;;;24.80;15.10;;;;;;;6.76;45.12;100828.20;105868;1276;1003237;-51
2024/01/15 08:17:09;;;;;;;21.00;14.30;;;;;;;6.85;45.04;100818.84;106695;1259;25328;-51
2024/01/15 08:19:36;;;;;;;19.70;14.60;;;;;;;6.95;44.57;100816.04;106743;1258;25489;-51
2024/01/15 08:22:04;;;;;;;26.90;17.70;;;;;;;7.03;44.17;100803.39;105932;1260;1003751;-53
2024/01/15 08:24:31;;;;;;;22.80;17.00;;;;;;;7.09;43.88;100800.42;106866;1258;25339;-51
2024/01/15 08:26:59;;;;;;;20.20;15.40;;;;;;;7.14;43.65;100794.86;106712;1279;25481;-51
2024/01/15 08:29:26;;;;;;;17.80;13.60;;;;;;;7.19;43.73;100791.73;106713;1259;25266;-52
2024/01/15 08:31:52;;;;;;;17.40;13.10;;;;;;;7.22;43.49;100800.67;105962;1271;1003283;-53
2024/01/15 08:34:20;;;;;;;15.20;12.60;;;;;;;7.27;43.31;100810.13;106840;1261;25429;-52
2024/01/15 08:36:47;;;;;;;15.20;12.00;;;;;;;7.37;43.05;100812.64;105995;1272;1003017;-51
2024/01/15 08:39:14;;;;;;;16.00;12.40;;;;;;;7.35;43.19;100809.89;106008;1272;1003383;-52
2024/01/15 08:41:41;;;;;;;20.00;15.00;;;;;;;7.43;43.33;100806.54;106783;1260;23907;-51
2024/01/15 08:44:08;;;;;;;21.10;15.90;;;;;;;7.47;43.40;100809.61;106502;1258;25356;-50
2024/01/15 08:46:37;;;;;;;19.20;15.90;;;;;;;7.53;43.49;100806.29;106558;1272;25406;-52
2024/01/15 08:49:04;;;;;;;21.40;16.10;;;;;;;7.61;43.55;100804.33;106556;1260;22543;-52
2024/01/15 08:51:31;;;;;;;19.50;14.60;;;;;;;7.70;43.34;100792.66;106267;1273;25348;-52
2024/01/15 08:53:58;;;;;;;18.40;14.30;;;;;;;7.80;43.52;100785.84;106406;1259;24374;-52
2024/01/15 08:56:27;;;;;;;19.60;14.30;;;;;;;7.90;43.48;100777.42;105798;1272;1003263;-52
2024/01/15 08:58:54;;;;;;;17.60;13.30;;;;;;;8.00;43.46;100772.66;106357;1260;25388;-54
2024/01/15 09:01:23;;;;;;;19.70;14.20;;;;;;;8.08;43.71;100769.13;105572;1273;1003116;-51
2024/01/15 09:03:50;;;;;;;19.10;14.40;;;;;;;8.14;43.77;100758.15;106585;1259;22627;-51
2024/01/15 09:06:17;;;;;;;18.50;14.60;;;;;;;8.20;43.70;100753.27;106553;1275;25394;-51
2024/01/15 09:08:44;;;;;;;16.90;13.30;;;;;;;8.25;43.90;100748.02;106014;1272;1002927;-51
2024/01/15 09:11:12;;;;;;;18.80;13.70;;;;;;;8.29;44.21;100737.28;106024;1264;1003631;-52
2024/01/15 09:13:42;;;;;;;21.10;15.00;;;;;;;8.34;44.34;100731.70;106517;1273;25513;-51
2024/01/15 09:16:09;;;;;;;20.60;14.90;;;;;;;8.38;44.54;100735.78;106397;1279;24214;-50
2024/01/15 09:18:36;;;;;;;23.60;16.30;;;;;;;8.44;44.71;100741.75;105992;1273;1002806;-51
2024/01/15 09:21:05;;;;;;;22.90;16.60;;;;;;;8.52;44.88;100741.48;106873;1272;25512;-51
2024/01/15 09:23:32;;;;;;;19.50;14.70;;;;;;;8.60;44.95;100736.52;106001;1272;1003347;-51
2024/01/15 09:25:59;;;;;;;20.60;15.30;;;;;;;8.67;44.98;100731.39;106577;1275;25332;-51
2024/01/15 09:28:26;;;;;;;19.40;13.40;;;;;;;8.75;45.19;100729.73;106770;1272;25342;-50
2024/01/15 09:30:53;;;;;;;20.80;14.40;;;;;;;8.81;45.33;100725.66;106792;1272;25571;-51
2024/01/15 09:33:21;;;;;;;16.40;13.20;;;;;;;8.86;45.67;100723.52;105958;1272;1003380;-51
2024/01/15 09:35:48;;;;;;;19.10;14.80;;;;;;;8.90;45.57;100718.42;106509;1273;25510;-51
2024/01/15 09:38:16;;;;;;;18.60;13.80;;;;;;;8.95;45.84;100713.69;106784;1272;25399;-51
2024/01/15 09:40:43;;;;;;;21.10;14.00;;;;;;;9.00;46.10;100702.00;106702;1272;25479;-51
2024/01/15 09:43:10;;;;;;;19.00;13.30;;;;;;;9.08;46.29;100699.27;106443;1275;24197;-51
2024/01/15 09:45:38;;;;;;;17.30;13.60;;;;;;;9.15;46.43;100695.88;106542;1275;25422;-51
2024/01/15 09:48:07;;;;;;;24.10;14.70;;;;;;;9.20;46.59;100694.73;106528;1275;25407;-50
2024/01/15 09:50:34;;;;;;;21.20;14.20;;;;;;;9.27;46.54;100696.02;106354;1281;22534;-51
2024/01/15 09:53:01;;;;;;;21.90;15.20;;;;;;;9.30;46.81;100693.87;106437;1276;25360;-52
2024/01/15 09:55:29;;;;;;;20.40;14.90;;;;;;;9.35;46.95;100701.57;106306;1275;24225;-51
2024/01/15 09:57:56;;;;;;;19.80;12.70;;;;;;;9.40;47.13;100702.52;106387;1275;23180;-51
2024/01/15 10:00:23;;;;;;;17.90;12.80;;;;;;;9.48;47.65;100701.17;106242;1267;25517;-51
2024/01/15 10:02:50;;;;;;;22.00;11.90;;;;;;;9.57;47.96;100696.66;106570;1275;25342;-51
2024/01/15 10:05:17;;;;;;;17.50;9.90;;;;;;;9.67;48.00;100689.20;106552;1275;25509;-52
2024/01/15 10:07:44;;;;;;;12.60;8.70;;;;;;;9.75;47.89;100686.96;106456;1275;25339;-51
2024/01/15 10:10:11;;;;;;;11.60;8.30;;;;;;;9.83;47.53;100683.52;106441;1262;25341;-51
2024/01/15 10:12:39;;;;;;;13.80;8.30;;;;;;;9.90;47.54;100682.17;106609;1275;25366;-51
2024/01/15 10:15:10;;;;;;;13.00;7.60;;;;;;;9.95;47.49;100675.48;106551;1263;23478;-51
2024/01/15 10:17:38;;;;;;;13.10;8.00;;;;;;;10.00;47.46;100674.53;106525;1275;22534;-51
2024/01/15 10:20:10;;;;;;;16.50;8.40;;;;;;;10.14;47.25;100670.63;106343;1264;25488;-51
2024/01/15 10:22:42;;;;;;;10.90;7.00;;;;;;;10.28;47.04;100666.31;106377;1264;25443;-51
2024/01/15 10:25:15;;;;;;;10.00;5.90;;;;;;;10.34;46.71;100657.52;106574;1272;25368;-51
2024/01/15 10:27:42;;;;;;;9.90;6.40;;;;;;;10.45;45.98;100651.89;106739;1272;25424;-51
2024/01/15 10:30:10;;;;;;;15.10;7.50;;;;;;;10.53;45.78;100645.98;106475;1273;25367;-51
2024/01/15 10:32:38;;;;;;;13.00;7.10;;;;;;;10.57;45.74;100644.86;106812;1256;22855;-51
2024/01/15 10:35:07;;;;;;;9.00;6.40;;;;;;;10.58;45.74;100647.25;106740;1259;23420;-51
2024/01/15 10:37:34;;;;;;;10.60;6.80;;;;;;;10.59;45.46;100641.51;106765;1256;22534;-51
2024/01/15 10:40:04;;;;;;;11.30;6.90;;;;;;;10.61;45.27;100642.85;106793;1260;22554;-50
2024/01/15 10:42:32;;;;;;;10.80;7.50;;;;;;;10.64;45.20;100640.86;106764;1272;25577;-50
2024/01/15 10:44:59;;;;;;;11.00;7.60;;;;;;;10.68;45.20;100639.20;106616;1262;25376;-51
2024/01/15 10:47:26;;;;;;;13.00;7.40;;;;;;;10.73;45.25;100635.09;106750;1272;25408;-50
2024/01/15 10:49:54;;;;;;;13.80;7.30;;;;;;;10.73;45.37;100629.54;106722;1272;25334;-50
2024/01/15 10:52:22;;;;;;;9.60;6.50;;;;;;;10.69;45.53;100624.95;106473;1272;25526;-50
2024/01/15 10:54:49;;;;;;;10.00;7.40;;;;;;;10.62;45.66;100620.45;106642;1262;25376;-51
2024/01/15 10:57:15;;;;;;;10.30;6.80;;;;;;;10.62;45.67;100620.96;106758;1257;22542;-50
2024/01/15 10:59:43;;;;;;;11.50;6.30;;;;;;;10.64;45.48;100616.23;106591;1275;25512;-51
2024/01/15 11:02:12;;;;;;;8.60;5.80;;;;;;;10.69;45.22;100617.67;106026;1259;1002870;-52
2024/01/15 11:04:39;;;;;;;11.10;6.70;;;;;;;10.69;45.02;100614.20;106084;1272;1003715;-52